Dubrovnik, Croatia

05:41 AM CEST on Rujan 25, 2016 (GMT +0200)
Cilipi | | Change Station

Elev 541 ft 42.56 °N, 18.27 °E | Updated 11 minutes ago

Clear
Vedro
64 °F
Feels Like 64 °F
S
13
Vjetar Varijabla smjera vjetra Vjetar from SSI

Danas
High -- | Low -- °F
--% Chance of Precip.
Jučer
High -- | Low -- °F
Precip. -- u
Pritisak 30.12 u
Vidljivost -9999.0 milja
Oblaci
Točka rose 45 °F
Vlažnost 49%
Kiša 0.00 u
Visina snijega Not available.
6:37 AM 6:38 PM
Mlađak, 32% visible
METAR LDDU 250330Z 03011KT 360V060 CAVOK 18/07 Q1020 NOSIG
Pritisak 30.12 u
Vidljivost -9999.0 milja
Oblaci
Točka rose 45 °F
Vlažnost 49%
Kiša 0.00 u
Visina snijega Not available.
6:37 AM 6:38 PM
Mlađak, 32% visible
METAR LDDU 250330Z 03011KT 360V060 CAVOK 18/07 Q1020 NOSIG

10-Day Weather Forecast

×

Almanac

Astronomija

Sep. 25, 2016 Izlazak Zalazak
Trenutno vrijeme
Civilni sumrak
Nautički sumrak
Astronomski sumrak
Moon
Duljina trajanja vidljive svjetlosti
Duljina dana
Tomorrow will be .
, % of the Moon is Illuminated

Današnji ekstremi

Country Highs Country Lows

Community

WunderPhotos

Upload Photos

1,941,537 photos uploaded!

WunderBlog® & News

Nearby

Kvalitet zraka

  Kvalitet zraka AQ Index Zagadjenje
Not available.

Visina snijega

Station Depth Visina

Earthquake Activity

Grad Distance Mag. Time & Date
Minimum magnitude displayed is 2.5.

Coastal Water Temperatures

Mjesto Temperatura

Stations

Nearby Weather Stations

Lokacija stanice Temp. Subjektivni osjećaj Točka rose Vlažnost Vjetar Precip. Elev Ažurirano Tip